sensor_id;sensor_type;location;lat;lon;timestamp;temperature;humidity
15203;DHT22;7702;51.046;5.184;2024-02-21T00:00:53;9.30;99.90
15203;DHT22;7702;51.046;5.184;2024-02-21T00:03:19;9.30;99.90
15203;DHT22;7702;51.046;5.184;2024-02-21T00:05:46;9.40;99.90
15203;DHT22;7702;51.046;5.184;2024-02-21T00:08:12;9.30;99.90
15203;DHT22;7702;51.046;5.184;2024-02-21T00:10:38;9.30;99.90
15203;DHT22;7702;51.046;5.184;2024-02-21T00:13:03;9.30;99.90
15203;DHT22;7702;51.046;5.184;2024-02-21T00:15:29;9.40;99.90
15203;DHT22;7702;51.046;5.184;2024-02-21T00:17:55;9.30;99.90
15203;DHT22;7702;51.046;5.184;2024-02-21T00:20:21;9.30;99.90
15203;DHT22;7702;51.046;5.184;2024-02-21T00:22:47;9.30;99.90
15203;DHT22;7702;51.046;5.184;2024-02-21T00:25:12;9.30;99.90
15203;DHT22;7702;51.046;5.184;2024-02-21T00:49:35;9.30;99.90
15203;DHT22;7702;51.046;5.184;2024-02-21T00:52:01;9.20;99.90
15203;DHT22;7702;51.046;5.184;2024-02-21T00:54:26;9.30;99.90
15203;DHT22;7702;51.046;5.184;2024-02-21T00:56:52;9.30;99.90
15203;DHT22;7702;51.046;5.184;2024-02-21T00:59:18;9.30;99.90
15203;DHT22;7702;51.046;5.184;2024-02-21T01:01:44;9.30;99.90
15203;DHT22;7702;51.046;5.184;2024-02-21T01:04:09;9.20;99.90
15203;DHT22;7702;51.046;5.184;2024-02-21T01:06:35;9.20;99.90
15203;DHT22;7702;51.046;5.184;2024-02-21T01:09:01;9.30;99.90
15203;DHT22;7702;51.046;5.184;2024-02-21T01:11:27;9.20;99.90
15203;DHT22;7702;51.046;5.184;2024-02-21T01:13:53;9.20;99.90
15203;DHT22;7702;51.046;5.184;2024-02-21T01:16:18;9.20;99.90
15203;DHT22;7702;51.046;5.184;2024-02-21T01:18:44;9.20;99.90
15203;DHT22;7702;51.046;5.184;2024-02-21T01:21:10;9.20;99.90
15203;DHT22;7702;51.046;5.184;2024-02-21T01:23:36;9.20;99.90
15203;DHT22;7702;51.046;5.184;2024-02-21T01:26:03;9.20;99.90
15203;DHT22;7702;51.046;5.184;2024-02-21T01:28:28;9.20;99.90
15203;DHT22;7702;51.046;5.184;2024-02-21T01:30:54;9.10;99.90
15203;DHT22;7702;51.046;5.184;2024-02-21T01:33:20;9.10;99.90
15203;DHT22;7702;51.046;5.184;2024-02-21T01:35:45;9.10;99.90
15203;DHT22;7702;51.046;5.184;2024-02-21T01:38:13;9.20;99.90
15203;DHT22;7702;51.046;5.184;2024-02-21T01:40:38;9.20;99.90
15203;DHT22;7702;51.046;5.184;2024-02-21T01:43:18;9.10;99.90
15203;DHT22;7702;51.046;5.184;2024-02-21T01:45:48;9.10;99.90
15203;DHT22;7702;51.046;5.184;2024-02-21T01:48:14;9.20;99.90
15203;DHT22;7702;51.046;5.184;2024-02-21T01:50:40;9.10;99.90
15203;DHT22;7702;51.046;5.184;2024-02-21T01:53:06;9.10;99.90
15203;DHT22;7702;51.046;5.184;2024-02-21T01:55:32;9.10;99.90
15203;DHT22;7702;51.046;5.184;2024-02-21T01:57:58;9.10;99.90
15203;DHT22;7702;51.046;5.184;2024-02-21T02:00:24;9.10;99.90
15203;DHT22;7702;51.046;5.184;2024-02-21T02:02:50;9.20;99.90
15203;DHT22;7702;51.046;5.184;2024-02-21T02:05:16;9.20;99.90
15203;DHT22;7702;51.046;5.184;2024-02-21T02:07:44;9.20;99.90
15203;DHT22;7702;51.046;5.184;2024-02-21T02:10:09;9.10;99.90
15203;DHT22;7702;51.046;5.184;2024-02-21T02:12:35;9.10;99.90
15203;DHT22;7702;51.046;5.184;2024-02-21T02:15:02;9.10;99.90
15203;DHT22;7702;51.046;5.184;2024-02-21T02:17:31;9.10;99.90
15203;DHT22;7702;51.046;5.184;2024-02-21T02:19:57;9.10;99.90
15203;DHT22;7702;51.046;5.184;2024-02-21T02:22:25;9.10;99.90
15203;DHT22;7702;51.046;5.184;2024-02-21T02:24:53;9.00;99.90
15203;DHT22;7702;51.046;5.184;2024-02-21T02:27:19;9.00;99.90
15203;DHT22;7702;51.046;5.184;2024-02-21T02:29:44;9.00;99.90
15203;DHT22;7702;51.046;5.184;2024-02-21T02:32:11;8.90;99.90
15203;DHT22;7702;51.046;5.184;2024-02-21T02:34:37;8.90;99.90
15203;DHT22;7702;51.046;5.184;2024-02-21T02:37:03;9.00;99.90
15203;DHT22;7702;51.046;5.184;2024-02-21T02:39:28;8.90;99.90
15203;DHT22;7702;51.046;5.184;2024-02-21T02:41:54;8.90;99.90
15203;DHT22;7702;51.046;5.184;2024-02-21T02:44:20;8.90;99.90
15203;DHT22;7702;51.046;5.184;2024-02-21T02:46:45;8.80;99.90
15203;DHT22;7702;51.046;5.184;2024-02-21T02:49:11;8.80;99.90
15203;DHT22;7702;51.046;5.184;2024-02-21T02:51:36;8.80;99.90
15203;DHT22;7702;51.046;5.184;2024-02-21T02:54:06;8.80;99.90
15203;DHT22;7702;51.046;5.184;2024-02-21T02:56:31;8.70;99.90
15203;DHT22;7702;51.046;5.184;2024-02-21T02:58:58;8.80;99.90
15203;DHT22;7702;51.046;5.184;2024-02-21T03:01:23;8.70;99.90
15203;DHT22;7702;51.046;5.184;2024-02-21T03:03:49;8.80;99.90
15203;DHT22;7702;51.046;5.184;2024-02-21T03:06:15;8.80;99.90
15203;DHT22;7702;51.046;5.184;2024-02-21T03:08:40;8.80;99.90
15203;DHT22;7702;51.046;5.184;2024-02-21T03:11:06;8.80;99.90
15203;DHT22;7702;51.046;5.184;2024-02-21T03:13:32;8.80;99.90
15203;DHT22;7702;51.046;5.184;2024-02-21T03:15:58;8.80;99.90
15203;DHT22;7702;51.046;5.184;2024-02-21T03:18:23;8.90;99.90
15203;DHT22;7702;51.046;5.184;2024-02-21T03:20:49;8.80;99.90
15203;DHT22;7702;51.046;5.184;2024-02-21T03:23:14;8.80;99.90
15203;DHT22;7702;51.046;5.184;2024-02-21T03:25:40;8.80;99.90
15203;DHT22;7702;51.046;5.184;2024-02-21T03:28:06;8.80;99.90
15203;DHT22;7702;51.046;5.184;2024-02-21T03:30:32;8.80;99.90
15203;DHT22;7702;51.046;5.184;2024-02-21T03:32:59;8.80;99.90
15203;DHT22;7702;51.046;5.184;2024-02-21T03:35:24;8.70;99.90
15203;DHT22;7702;51.046;5.184;2024-02-21T03:37:53;8.70;99.90
15203;DHT22;7702;51.046;5.184;2024-02-21T03:40:19;8.70;99.90
15203;DHT22;7702;51.046;5.184;2024-02-21T03:42:44;8.80;99.90
15203;DHT22;7702;51.046;5.184;2024-02-21T03:45:10;8.70;99.90
15203;DHT22;7702;51.046;5.184;2024-02-21T03:47:35;8.70;99.90
15203;DHT22;7702;51.046;5.184;2024-02-21T03:50:01;8.70;99.90
15203;DHT22;7702;51.046;5.184;2024-02-21T03:52:27;8.70;99.90
15203;DHT22;7702;51.046;5.184;2024-02-21T03:54:52;8.70;99.90
15203;DHT22;7702;51.046;5.184;2024-02-21T03:57:20;8.70;99.90
15203;DHT22;7702;51.046;5.184;2024-02-21T03:59:49;8.60;99.90
15203;DHT22;7702;51.046;5.184;2024-02-21T04:02:15;8.60;99.90
15203;DHT22;7702;51.046;5.184;2024-02-21T04:04:43;8.60;99.90
15203;DHT22;7702;51.046;5.184;2024-02-21T04:07:12;8.70;99.90
15203;DHT22;7702;51.046;5.184;2024-02-21T04:09:37;8.70;99.90
15203;DHT22;7702;51.046;5.184;2024-02-21T04:12:03;8.60;99.90
15203;DHT22;7702;51.046;5.184;2024-02-21T04:14:29;8.60;99.90
15203;DHT22;7702;51.046;5.184;2024-02-21T04:16:54;8.60;99.90
15203;DHT22;7702;51.046;5.184;2024-02-21T04:19:21;8.60;99.90
15203;DHT22;7702;51.046;5.184;2024-02-21T04:21:46;8.60;99.90
15203;DHT22;7702;51.046;5.184;2024-02-21T04:24:12;8.60;99.90
15203;DHT22;7702;51.046;5.184;2024-02-21T04:26:38;8.60;99.90
15203;DHT22;7702;51.046;5.184;2024-02-21T04:29:03;8.60;99.90
15203;DHT22;7702;51.046;5.184;2024-02-21T04:31:29;8.50;99.90
15203;DHT22;7702;51.046;5.184;2024-02-21T04:33:55;8.60;99.90
15203;DHT22;7702;51.046;5.184;2024-02-21T04:36:21;8.60;99.90
15203;DHT22;7702;51.046;5.184;2024-02-21T04:38:46;8.60;99.90
15203;DHT22;7702;51.046;5.184;2024-02-21T04:41:12;8.60;99.90
15203;DHT22;7702;51.046;5.184;2024-02-21T04:43:38;8.60;99.90
15203;DHT22;7702;51.046;5.184;2024-02-21T04:46:04;8.60;99.90
15203;DHT22;7702;51.046;5.184;2024-02-21T04:48:30;8.60;99.90
15203;DHT22;7702;51.046;5.184;2024-02-21T04:50:55;8.60;99.90
15203;DHT22;7702;51.046;5.184;2024-02-21T04:53:21;8.60;99.90
15203;DHT22;7702;51.046;5.184;2024-02-21T04:55:47;8.60;99.90
15203;DHT22;7702;51.046;5.184;2024-02-21T04:58:13;8.60;99.90
15203;DHT22;7702;51.046;5.184;2024-02-21T05:00:39;8.50;99.90
15203;DHT22;7702;51.046;5.184;2024-02-21T05:03:04;8.50;99.90
15203;DHT22;7702;51.046;5.184;2024-02-21T05:05:30;8.60;99.90
15203;DHT22;7702;51.046;5.184;2024-02-21T05:07:56;8.60;99.90
15203;DHT22;7702;51.046;5.184;2024-02-21T05:10:22;8.60;99.90
15203;DHT22;7702;51.046;5.184;2024-02-21T05:12:47;8.50;99.90
15203;DHT22;7702;51.046;5.184;2024-02-21T05:15:13;8.60;99.90
15203;DHT22;7702;51.046;5.184;2024-02-21T05:17:39;8.50;99.90
15203;DHT22;7702;51.046;5.184;2024-02-21T05:20:05;8.50;99.90
15203;DHT22;7702;51.046;5.184;2024-02-21T05:22:31;8.50;99.90
15203;DHT22;7702;51.046;5.184;2024-02-21T05:24:56;8.50;99.90
15203;DHT22;7702;51.046;5.184;2024-02-21T05:27:22;8.60;99.90
15203;DHT22;7702;51.046;5.184;2024-02-21T05:29:48;8.60;99.90
15203;DHT22;7702;51.046;5.184;2024-02-21T05:32:13;8.60;99.90
15203;DHT22;7702;51.046;5.184;2024-02-21T05:34:39;8.60;99.90
15203;DHT22;7702;51.046;5.184;2024-02-21T05:37:05;8.60;99.90
15203;DHT22;7702;51.046;5.184;2024-02-21T05:39:31;8.60;99.90
15203;DHT22;7702;51.046;5.184;2024-02-21T05:41:57;8.60;99.90
15203;DHT22;7702;51.046;5.184;2024-02-21T05:44:23;8.60;99.90
15203;DHT22;7702;51.046;5.184;2024-02-21T05:46:48;8.60;99.90
15203;DHT22;7702;51.046;5.184;2024-02-21T05:49:14;8.60;99.90
15203;DHT22;7702;51.046;5.184;2024-02-21T05:51:39;8.60;99.90
15203;DHT22;7702;51.046;5.184;2024-02-21T05:54:05;8.60;99.90
15203;DHT22;7702;51.046;5.184;2024-02-21T05:56:32;8.60;99.90
15203;DHT22;7702;51.046;5.184;2024-02-21T05:58:58;8.60;99.90
15203;DHT22;7702;51.046;5.184;2024-02-21T06:01:24;8.60;99.90
15203;DHT22;7702;51.046;5.184;2024-02-21T06:03:50;8.60;99.90
15203;DHT22;7702;51.046;5.184;2024-02-21T06:06:15;8.60;99.90
15203;DHT22;7702;51.046;5.184;2024-02-21T06:08:41;8.60;99.90
15203;DHT22;7702;51.046;5.184;2024-02-21T06:11:07;8.60;99.90
15203;DHT22;7702;51.046;5.184;2024-02-21T06:13:33;8.60;99.90
15203;DHT22;7702;51.046;5.184;2024-02-21T06:15:58;8.60;99.90
15203;DHT22;7702;51.046;5.184;2024-02-21T06:18:24;8.50;99.90
15203;DHT22;7702;51.046;5.184;2024-02-21T06:20:50;8.60;99.90
15203;DHT22;7702;51.046;5.184;2024-02-21T06:23:16;8.60;99.90
15203;DHT22;7702;51.046;5.184;2024-02-21T06:25:43;8.50;99.90
15203;DHT22;7702;51.046;5.184;2024-02-21T06:28:09;8.50;99.90
15203;DHT22;7702;51.046;5.184;2024-02-21T06:30:35;8.50;99.90
15203;DHT22;7702;51.046;5.184;2024-02-21T06:33:01;8.50;99.90
15203;DHT22;7702;51.046;5.184;2024-02-21T06:35:28;8.60;99.90
15203;DHT22;7702;51.046;5.184;2024-02-21T06:37:54;8.60;99.90
15203;DHT22;7702;51.046;5.184;2024-02-21T06:40:22;8.60;99.90
15203;DHT22;7702;51.046;5.184;2024-02-21T06:42:48;8.50;99.90
15203;DHT22;7702;51.046;5.184;2024-02-21T06:45:14;8.50;99.90
15203;DHT22;7702;51.046;5.184;2024-02-21T06:47:39;8.50;99.90
15203;DHT22;7702;51.046;5.184;2024-02-21T06:50:05;8.50;99.90
15203;DHT22;7702;51.046;5.184;2024-02-21T06:52:31;8.50;99.90
15203;DHT22;7702;51.046;5.184;2024-02-21T06:54:57;8.50;99.90
15203;DHT22;7702;51.046;5.184;2024-02-21T06:57:23;8.50;99.90
15203;DHT22;7702;51.046;5.184;2024-02-21T06:59:49;8.50;99.90
15203;DHT22;7702;51.046;5.184;2024-02-21T07:02:15;8.50;99.90
15203;DHT22;7702;51.046;5.184;2024-02-21T07:04:40;8.50;99.90
15203;DHT22;7702;51.046;5.184;2024-02-21T07:07:06;8.50;99.90
15203;DHT22;7702;51.046;5.184;2024-02-21T07:09:32;8.50;99.90
15203;DHT22;7702;51.046;5.184;2024-02-21T07:12:01;8.40;99.90
15203;DHT22;7702;51.046;5.184;2024-02-21T07:14:28;8.40;99.90
15203;DHT22;7702;51.046;5.184;2024-02-21T07:16:54;8.50;99.90
15203;DHT22;7702;51.046;5.184;2024-02-21T07:19:20;8.50;99.90
15203;DHT22;7702;51.046;5.184;2024-02-21T07:21:45;8.50;99.90
15203;DHT22;7702;51.046;5.184;2024-02-21T07:24:11;8.40;99.90
15203;DHT22;7702;51.046;5.184;2024-02-21T07:26:40;8.40;99.90
15203;DHT22;7702;51.046;5.184;2024-02-21T07:29:06;8.40;99.90
15203;DHT22;7702;51.046;5.184;2024-02-21T07:31:38;8.40;99.90
15203;DHT22;7702;51.046;5.184;2024-02-21T07:34:03;8.40;99.90
15203;DHT22;7702;51.046;5.184;2024-02-21T07:36:30;8.40;99.90
15203;DHT22;7702;51.046;5.184;2024-02-21T07:38:56;8.40;99.90
15203;DHT22;7702;51.046;5.184;2024-02-21T07:41:22;8.30;99.90
15203;DHT22;7702;51.046;5.184;2024-02-21T07:43:48;8.30;99.90
15203;DHT22;7702;51.046;5.184;2024-02-21T07:46:17;8.20;99.90
15203;DHT22;7702;51.046;5.184;2024-02-21T07:48:44;8.20;99.90
15203;DHT22;7702;51.046;5.184;2024-02-21T07:51:10;8.20;99.90
15203;DHT22;7702;51.046;5.184;2024-02-21T07:53:36;8.20;99.90
15203;DHT22;7702;51.046;5.184;2024-02-21T07:56:02;8.20;99.90
15203;DHT22;7702;51.046;5.184;2024-02-21T07:58:27;8.10;99.90
15203;DHT22;7702;51.046;5.184;2024-02-21T08:00:53;8.00;99.90
15203;DHT22;7702;51.046;5.184;2024-02-21T08:03:19;8.10;99.90
15203;DHT22;7702;51.046;5.184;2024-02-21T08:05:46;8.10;99.90
15203;DHT22;7702;51.046;5.184;2024-02-21T08:08:12;8.10;99.90
15203;DHT22;7702;51.046;5.184;2024-02-21T08:10:43;8.20;99.90
15203;DHT22;7702;51.046;5.184;2024-02-21T08:13:09;8.10;99.90
15203;DHT22;7702;51.046;5.184;2024-02-21T08:15:34;8.20;99.90
15203;DHT22;7702;51.046;5.184;2024-02-21T08:18:01;8.20;99.90
15203;DHT22;7702;51.046;5.184;2024-02-21T08:20:29;8.20;99.90
15203;DHT22;7702;51.046;5.184;2024-02-21T08:22:54;8.20;99.90
15203;DHT22;7702;51.046;5.184;2024-02-21T08:25:20;8.20;99.90
15203;DHT22;7702;51.046;5.184;2024-02-21T08:27:45;8.30;99.90
15203;DHT22;7702;51.046;5.184;2024-02-21T08:30:11;8.20;99.90
15203;DHT22;7702;51.046;5.184;2024-02-21T08:32:37;8.20;99.90
15203;DHT22;7702;51.046;5.184;2024-02-21T08:35:03;8.30;99.90
15203;DHT22;7702;51.046;5.184;2024-02-21T08:37:30;8.30;99.90
15203;DHT22;7702;51.046;5.184;2024-02-21T08:39:56;8.40;99.90
15203;DHT22;7702;51.046;5.184;2024-02-21T08:42:22;8.50;99.90
15203;DHT22;7702;51.046;5.184;2024-02-21T08:44:47;8.50;99.90
15203;DHT22;7702;51.046;5.184;2024-02-21T08:47:13;8.50;99.90
15203;DHT22;7702;51.046;5.184;2024-02-21T08:49:39;8.60;99.90
15203;DHT22;7702;51.046;5.184;2024-02-21T08:52:05;8.70;99.90
15203;DHT22;7702;51.046;5.184;2024-02-21T08:54:31;8.70;99.90
15203;DHT22;7702;51.046;5.184;2024-02-21T08:56:58;8.80;99.90
15203;DHT22;7702;51.046;5.184;2024-02-21T08:59:24;8.80;99.90
15203;DHT22;7702;51.046;5.184;2024-02-21T09:01:52;8.80;99.90
15203;DHT22;7702;51.046;5.184;2024-02-21T09:04:20;8.90;99.90
15203;DHT22;7702;51.046;5.184;2024-02-21T09:06:46;8.90;99.90
15203;DHT22;7702;51.046;5.184;2024-02-21T09:09:12;8.90;99.90
15203;DHT22;7702;51.046;5.184;2024-02-21T09:11:38;8.90;99.90
15203;DHT22;7702;51.046;5.184;2024-02-21T09:14:04;8.90;99.90
15203;DHT22;7702;51.046;5.184;2024-02-21T09:16:32;9.00;99.90
15203;DHT22;7702;51.046;5.184;2024-02-21T09:18:58;9.00;99.90
15203;DHT22;7702;51.046;5.184;2024-02-21T09:21:24;8.90;99.90
15203;DHT22;7702;51.046;5.184;2024-02-21T09:23:50;9.00;99.90
15203;DHT22;7702;51.046;5.184;2024-02-21T09:26:15;9.00;99.90
15203;DHT22;7702;51.046;5.184;2024-02-21T09:28:43;9.00;99.90
15203;DHT22;7702;51.046;5.184;2024-02-21T09:31:09;9.10;99.90
15203;DHT22;7702;51.046;5.184;2024-02-21T09:33:35;9.10;99.90
15203;DHT22;7702;51.046;5.184;2024-02-21T09:36:01;9.10;99.90
15203;DHT22;7702;51.046;5.184;2024-02-21T09:38:27;9.10;99.90
15203;DHT22;7702;51.046;5.184;2024-02-21T09:40:59;9.20;99.90
15203;DHT22;7702;51.046;5.184;2024-02-21T09:43:26;9.20;99.90
15203;DHT22;7702;51.046;5.184;2024-02-21T09:45:55;9.30;99.90
15203;DHT22;7702;51.046;5.184;2024-02-21T09:51:02;9.40;99.90
15203;DHT22;7702;51.046;5.184;2024-02-21T09:53:31;9.40;99.90
15203;DHT22;7702;51.046;5.184;2024-02-21T09:55:58;9.40;99.90
15203;DHT22;7702;51.046;5.184;2024-02-21T09:58:26;9.50;99.90
15203;DHT22;7702;51.046;5.184;2024-02-21T10:00:52;9.60;99.90
15203;DHT22;7702;51.046;5.184;2024-02-21T10:03:18;9.70;99.90
15203;DHT22;7702;51.046;5.184;2024-02-21T10:05:48;9.70;99.90
15203;DHT22;7702;51.046;5.184;2024-02-21T10:08:15;9.70;99.90
15203;DHT22;7702;51.046;5.184;2024-02-21T10:10:43;9.80;99.90
15203;DHT22;7702;51.046;5.184;2024-02-21T10:13:09;9.90;99.90
15203;DHT22;7702;51.046;5.184;2024-02-21T10:15:35;10.00;99.90
15203;DHT22;7702;51.046;5.184;2024-02-21T10:18:02;10.20;99.90
15203;DHT22;7702;51.046;5.184;2024-02-21T10:20:32;10.10;99.90
15203;DHT22;7702;51.046;5.184;2024-02-21T10:25:28;10.20;99.90
15203;DHT22;7702;51.046;5.184;2024-02-21T10:27:54;10.40;99.90
15203;DHT22;7702;51.046;5.184;2024-02-21T10:30:20;10.40;99.90
15203;DHT22;7702;51.046;5.184;2024-02-21T10:32:53;10.30;99.90
15203;DHT22;7702;51.046;5.184;2024-02-21T10:35:32;10.30;99.90
15203;DHT22;7702;51.046;5.184;2024-02-21T10:37:59;10.20;99.90
15203;DHT22;7702;51.046;5.184;2024-02-21T10:40:25;10.20;99.90
15203;DHT22;7702;51.046;5.184;2024-02-21T10:42:59;10.20;99.90
15203;DHT22;7702;51.046;5.184;2024-02-21T10:45:30;10.40;99.90
15203;DHT22;7702;51.046;5.184;2024-02-21T10:48:06;10.40;99.90
15203;DHT22;7702;51.046;5.184;2024-02-21T10:50:42;10.30;99.90
15203;DHT22;7702;51.046;5.184;2024-02-21T10:53:42;10.30;99.90
15203;DHT22;7702;51.046;5.184;2024-02-21T10:56:31;10.20;99.90
15203;DHT22;7702;51.046;5.184;2024-02-21T10:59:02;10.10;99.90
15203;DHT22;7702;51.046;5.184;2024-02-21T11:01:28;10.20;99.90
15203;DHT22;7702;51.046;5.184;2024-02-21T11:04:07;10.30;99.90
15203;DHT22;7702;51.046;5.184;2024-02-21T11:06:34;10.30;99.90
15203;DHT22;7702;51.046;5.184;2024-02-21T11:11:37;10.50;99.90
15203;DHT22;7702;51.046;5.184;2024-02-21T11:14:10;10.50;99.90
15203;DHT22;7702;51.046;5.184;2024-02-21T11:16:40;10.60;99.90
15203;DHT22;7702;51.046;5.184;2024-02-21T11:19:07;10.80;99.90
15203;DHT22;7702;51.046;5.184;2024-02-21T11:21:34;10.80;99.90
15203;DHT22;7702;51.046;5.184;2024-02-21T11:24:02;11.10;99.90
15203;DHT22;7702;51.046;5.184;2024-02-21T11:26:29;11.10;99.90
15203;DHT22;7702;51.046;5.184;2024-02-21T11:29:01;10.90;99.90
15203;DHT22;7702;51.046;5.184;2024-02-21T11:31:38;11.00;99.90
15203;DHT22;7702;51.046;5.184;2024-02-21T11:34:08;11.00;99.90
15203;DHT22;7702;51.046;5.184;2024-02-21T11:36:33;11.00;99.90
15203;DHT22;7702;51.046;5.184;2024-02-21T11:39:05;11.10;99.90
15203;DHT22;7702;51.046;5.184;2024-02-21T11:41:31;11.20;99.90
15203;DHT22;7702;51.046;5.184;2024-02-21T11:43:57;11.20;99.90
15203;DHT22;7702;51.046;5.184;2024-02-21T11:46:23;11.20;99.90
15203;DHT22;7702;51.046;5.184;2024-02-21T11:48:49;11.20;99.90
15203;DHT22;7702;51.046;5.184;2024-02-21T11:51:27;11.20;99.90
15203;DHT22;7702;51.046;5.184;2024-02-21T11:53:53;11.30;99.90
15203;DHT22;7702;51.046;5.184;2024-02-21T11:56:19;11.40;99.90
15203;DHT22;7702;51.046;5.184;2024-02-21T11:58:49;11.50;99.90
15203;DHT22;7702;51.046;5.184;2024-02-21T12:01:15;11.70;99.90
15203;DHT22;7702;51.046;5.184;2024-02-21T12:03:42;11.70;99.90
15203;DHT22;7702;51.046;5.184;2024-02-21T12:06:15;11.90;99.90
15203;DHT22;7702;51.046;5.184;2024-02-21T12:08:45;12.00;99.90
15203;DHT22;7702;51.046;5.184;2024-02-21T12:11:22;11.80;99.90
15203;DHT22;7702;51.046;5.184;2024-02-21T12:14:08;11.70;99.90
15203;DHT22;7702;51.046;5.184;2024-02-21T12:16:35;11.50;99.90
15203;DHT22;7702;51.046;5.184;2024-02-21T12:19:03;11.40;99.90
15203;DHT22;7702;51.046;5.184;2024-02-21T12:21:33;11.40;99.90
15203;DHT22;7702;51.046;5.184;2024-02-21T12:24:25;11.40;99.90
15203;DHT22;7702;51.046;5.184;2024-02-21T12:26:52;11.30;99.90
15203;DHT22;7702;51.046;5.184;2024-02-21T12:29:19;11.30;99.90
15203;DHT22;7702;51.046;5.184;2024-02-21T12:31:44;11.20;99.90
15203;DHT22;7702;51.046;5.184;2024-02-21T12:34:10;11.00;99.90
15203;DHT22;7702;51.046;5.184;2024-02-21T12:36:44;11.00;99.90
15203;DHT22;7702;51.046;5.184;2024-02-21T12:39:10;11.00;99.90
15203;DHT22;7702;51.046;5.184;2024-02-21T12:41:37;11.00;99.90
15203;DHT22;7702;51.046;5.184;2024-02-21T12:44:10;11.00;99.90
15203;DHT22;7702;51.046;5.184;2024-02-21T12:46:38;11.00;99.90
15203;DHT22;7702;51.046;5.184;2024-02-21T12:49:05;11.10;99.90
15203;DHT22;7702;51.046;5.184;2024-02-21T12:51:32;11.00;99.90
15203;DHT22;7702;51.046;5.184;2024-02-21T12:53:58;11.00;99.90
15203;DHT22;7702;51.046;5.184;2024-02-21T12:56:24;11.00;99.90
15203;DHT22;7702;51.046;5.184;2024-02-21T12:58:52;10.90;99.90
15203;DHT22;7702;51.046;5.184;2024-02-21T13:01:17;10.90;99.90
15203;DHT22;7702;51.046;5.184;2024-02-21T13:03:43;10.90;99.90
15203;DHT22;7702;51.046;5.184;2024-02-21T13:06:12;10.90;99.90
15203;DHT22;7702;51.046;5.184;2024-02-21T13:08:38;10.90;99.90
15203;DHT22;7702;51.046;5.184;2024-02-21T13:11:04;10.90;99.90
15203;DHT22;7702;51.046;5.184;2024-02-21T13:13:30;10.80;99.90
15203;DHT22;7702;51.046;5.184;2024-02-21T13:15:57;10.90;99.90
15203;DHT22;7702;51.046;5.184;2024-02-21T13:18:22;10.90;99.90
15203;DHT22;7702;51.046;5.184;2024-02-21T13:20:48;10.90;99.90
15203;DHT22;7702;51.046;5.184;2024-02-21T13:23:13;10.90;99.90
15203;DHT22;7702;51.046;5.184;2024-02-21T13:25:39;10.90;99.90
15203;DHT22;7702;51.046;5.184;2024-02-21T13:28:05;11.00;99.90
15203;DHT22;7702;51.046;5.184;2024-02-21T13:30:31;10.90;99.90
15203;DHT22;7702;51.046;5.184;2024-02-21T13:32:56;11.00;99.90
15203;DHT22;7702;51.046;5.184;2024-02-21T13:35:22;11.00;99.90
15203;DHT22;7702;51.046;5.184;2024-02-21T13:37:48;11.10;99.90
15203;DHT22;7702;51.046;5.184;2024-02-21T13:40:15;11.00;99.90
15203;DHT22;7702;51.046;5.184;2024-02-21T13:42:42;11.00;99.90
15203;DHT22;7702;51.046;5.184;2024-02-21T13:45:09;11.10;99.90
15203;DHT22;7702;51.046;5.184;2024-02-21T13:47:35;11.10;99.90
15203;DHT22;7702;51.046;5.184;2024-02-21T13:50:05;11.10;99.90
15203;DHT22;7702;51.046;5.184;2024-02-21T13:52:34;11.00;99.90
15203;DHT22;7702;51.046;5.184;2024-02-21T13:55:00;11.00;99.90
15203;DHT22;7702;51.046;5.184;2024-02-21T13:57:26;11.00;99.90
15203;DHT22;7702;51.046;5.184;2024-02-21T13:59:51;11.00;99.90
15203;DHT22;7702;51.046;5.184;2024-02-21T14:02:17;11.10;99.90
15203;DHT22;7702;51.046;5.184;2024-02-21T14:04:43;11.10;99.90
15203;DHT22;7702;51.046;5.184;2024-02-21T14:07:09;11.00;99.90
15203;DHT22;7702;51.046;5.184;2024-02-21T14:09:34;11.00;99.90
15203;DHT22;7702;51.046;5.184;2024-02-21T14:12:00;11.00;99.90
15203;DHT22;7702;51.046;5.184;2024-02-21T14:14:26;11.00;99.90
15203;DHT22;7702;51.046;5.184;2024-02-21T14:16:52;11.10;99.90
15203;DHT22;7702;51.046;5.184;2024-02-21T14:19:18;11.00;99.90
15203;DHT22;7702;51.046;5.184;2024-02-21T14:21:44;10.90;99.90
15203;DHT22;7702;51.046;5.184;2024-02-21T14:24:10;10.90;99.90
15203;DHT22;7702;51.046;5.184;2024-02-21T14:26:37;10.90;99.90
15203;DHT22;7702;51.046;5.184;2024-02-21T14:29:03;10.90;99.90
15203;DHT22;7702;51.046;5.184;2024-02-21T14:31:31;10.90;99.90
15203;DHT22;7702;51.046;5.184;2024-02-21T14:33:57;10.90;99.90
15203;DHT22;7702;51.046;5.184;2024-02-21T14:36:23;10.80;99.90
15203;DHT22;7702;51.046;5.184;2024-02-21T14:38:49;10.70;99.90
15203;DHT22;7702;51.046;5.184;2024-02-21T14:41:17;10.70;99.90
15203;DHT22;7702;51.046;5.184;2024-02-21T14:43:42;10.60;99.90
15203;DHT22;7702;51.046;5.184;2024-02-21T14:46:09;10.60;99.90
15203;DHT22;7702;51.046;5.184;2024-02-21T14:48:34;10.50;99.90
15203;DHT22;7702;51.046;5.184;2024-02-21T14:51:01;10.40;99.90
15203;DHT22;7702;51.046;5.184;2024-02-21T14:53:29;10.40;99.90
15203;DHT22;7702;51.046;5.184;2024-02-21T14:55:55;10.30;99.90
15203;DHT22;7702;51.046;5.184;2024-02-21T14:58:21;10.20;99.90
15203;DHT22;7702;51.046;5.184;2024-02-21T15:00:46;10.20;99.90
15203;DHT22;7702;51.046;5.184;2024-02-21T15:03:13;10.10;99.90
15203;DHT22;7702;51.046;5.184;2024-02-21T15:05:42;10.00;99.90
15203;DHT22;7702;51.046;5.184;2024-02-21T15:08:08;9.90;99.90
15203;DHT22;7702;51.046;5.184;2024-02-21T15:10:35;9.90;99.90
15203;DHT22;7702;51.046;5.184;2024-02-21T15:13:01;9.90;99.90
15203;DHT22;7702;51.046;5.184;2024-02-21T15:15:28;9.80;99.90
15203;DHT22;7702;51.046;5.184;2024-02-21T15:17:54;9.90;99.90
15203;DHT22;7702;51.046;5.184;2024-02-21T15:20:19;9.80;99.90
15203;DHT22;7702;51.046;5.184;2024-02-21T15:22:45;9.80;99.90
15203;DHT22;7702;51.046;5.184;2024-02-21T15:25:11;9.80;99.90
15203;DHT22;7702;51.046;5.184;2024-02-21T15:27:41;9.90;99.90
15203;DHT22;7702;51.046;5.184;2024-02-21T15:30:09;9.80;99.90
15203;DHT22;7702;51.046;5.184;2024-02-21T15:32:34;9.80;99.90
15203;DHT22;7702;51.046;5.184;2024-02-21T15:35:03;9.80;99.90
15203;DHT22;7702;51.046;5.184;2024-02-21T15:37:29;9.70;99.90
15203;DHT22;7702;51.046;5.184;2024-02-21T15:39:55;9.60;99.90
15203;DHT22;7702;51.046;5.184;2024-02-21T15:42:20;9.60;99.90
15203;DHT22;7702;51.046;5.184;2024-02-21T15:44:46;9.60;99.90
15203;DHT22;7702;51.046;5.184;2024-02-21T15:47:12;9.50;99.90
15203;DHT22;7702;51.046;5.184;2024-02-21T15:49:38;9.50;99.90
15203;DHT22;7702;51.046;5.184;2024-02-21T15:52:03;9.40;99.90
15203;DHT22;7702;51.046;5.184;2024-02-21T15:54:29;9.40;99.90
15203;DHT22;7702;51.046;5.184;2024-02-21T15:56:55;9.30;99.90
15203;DHT22;7702;51.046;5.184;2024-02-21T15:59:21;9.30;99.90
15203;DHT22;7702;51.046;5.184;2024-02-21T16:01:47;9.30;99.90
15203;DHT22;7702;51.046;5.184;2024-02-21T16:04:13;9.30;99.90
15203;DHT22;7702;51.046;5.184;2024-02-21T16:06:41;9.30;99.90
15203;DHT22;7702;51.046;5.184;2024-02-21T16:09:08;9.20;99.90
15203;DHT22;7702;51.046;5.184;2024-02-21T16:11:35;9.10;99.90
15203;DHT22;7702;51.046;5.184;2024-02-21T16:14:01;9.10;99.90
15203;DHT22;7702;51.046;5.184;2024-02-21T16:16:29;9.10;99.90
15203;DHT22;7702;51.046;5.184;2024-02-21T16:18:56;9.10;99.90
15203;DHT22;7702;51.046;5.184;2024-02-21T16:21:22;9.00;99.90
15203;DHT22;7702;51.046;5.184;2024-02-21T16:23:47;9.00;99.90